< < Back
Terminal Aerodrome Forecast


Current Version              Previous Versions:   1  2  3  4  5  6  7  8  9  

Terminal Aerodrome Forecast

378
FTUS42 KGSP 011100
TAFAND
TAF
KAND 011135Z 0112/0212 25004KT P6SM BKN250
      TEMPO 0112/0113 5SM BR
     FM011600 25006KT P6SM SCT060
     FM012100 24006KT P6SM BKN060
     FM020100 23003KT P6SM SCT070=

Latest METAR

404
SAUS70 KWBC 011100 RRX
MTRAND
METAR KAND 011056Z AUTO 00000KT 6SM BR CLR 21/20 A3014 RMK AO2 SLP195
T02060200


USA.gov is the U.S. government's official web portal to all federal, state and local government web resources and services.